Time;durP1;ratioP1;P1;durP2;ratioP2;P2;SDS_P1;SDS_P2;PMS_P1;PMS_P2;Temp;Humidity;BMP_temperature;BMP_pressure;BME280_temperature;BME280_humidity;BME280_pressure;Samples;Min_cycle;Max_cycle;Signal;HPM_P1;HPM_P2
2022/07/24 00:02:20;;;;;;;5.85;4.45;;;15.70;99.90;;;;;;5028106;28;20504;-65
2022/07/24 00:04:46;;;;;;;5.28;3.72;;;15.70;99.90;;;;;;5079818;28;20095;-68
2022/07/24 00:07:13;;;;;;;4.32;3.53;;;15.60;99.90;;;;;;5047602;28;20056;-65
2022/07/24 00:09:39;;;;;;;5.65;3.78;;;15.60;99.90;;;;;;5073484;28;20123;-67
2022/07/24 00:12:05;;;;;;;6.68;4.20;;;15.50;99.90;;;;;;5043778;28;20414;-66
2022/07/24 00:14:31;;;;;;;6.05;4.35;;;15.50;99.90;;;;;;5046790;28;20056;-66
2022/07/24 00:16:57;;;;;;;5.18;4.38;;;15.50;99.90;;;;;;5044416;28;20487;-66
2022/07/24 00:19:24;;;;;;;6.40;4.25;;;15.40;99.90;;;;;;5078820;28;20041;-68
2022/07/24 00:21:50;;;;;;;5.45;4.07;;;15.40;99.90;;;;;;5045283;28;20057;-66
2022/07/24 00:24:18;;;;;;;6.75;4.40;;;15.50;99.90;;;;;;5049011;28;20044;-66
2022/07/24 00:26:44;;;;;;;6.85;5.00;;;15.40;99.90;;;;;;5045921;28;20059;-67
2022/07/24 00:29:10;;;;;;;6.20;4.75;;;15.40;99.90;;;;;;5033427;28;20065;-68
2022/07/24 00:31:36;;;;;;;5.70;4.53;;;15.40;99.90;;;;;;5045776;28;20120;-66
2022/07/24 00:34:02;;;;;;;5.13;4.03;;;15.40;99.90;;;;;;5047712;28;20056;-65
2022/07/24 00:36:28;;;;;;;4.70;4.20;;;15.30;99.90;;;;;;5048731;28;20092;-66
2022/07/24 00:38:55;;;;;;;7.05;4.50;;;15.30;99.90;;;;;;5029889;28;20129;-67
2022/07/24 00:41:21;;;;;;;8.23;4.40;;;15.30;99.90;;;;;;5030068;28;20407;-66
2022/07/24 00:44:05;;;;;;;7.95;5.00;;;15.30;99.90;;;;;;5049413;28;20048;-66
2022/07/24 00:46:32;;;;;;;6.05;4.70;;;15.20;99.90;;;;;;5044515;28;20114;-67
2022/07/24 00:48:58;;;;;;;6.13;4.80;;;15.20;99.90;;;;;;5050660;28;20044;-66
2022/07/24 00:51:25;;;;;;;6.20;4.53;;;15.20;99.90;;;;;;5053682;28;20566;-66
2022/07/24 00:53:51;;;;;;;7.18;4.50;;;15.20;99.90;;;;;;5052747;28;20143;-65
2022/07/24 00:56:17;;;;;;;7.65;4.60;;;15.10;99.90;;;;;;5036251;28;20487;-66
2022/07/24 00:58:44;;;;;;;8.38;5.15;;;15.10;99.90;;;;;;5051113;28;20116;-67
2022/07/24 01:01:10;;;;;;;6.85;4.80;;;15.00;99.90;;;;;;5035837;28;20045;-65
2022/07/24 01:03:36;;;;;;;6.10;5.03;;;15.00;99.90;;;;;;5086112;28;20049;-67
2022/07/24 01:06:02;;;;;;;6.55;4.90;;;15.00;99.90;;;;;;5052558;28;20053;-66
2022/07/24 01:08:28;;;;;;;6.55;5.05;;;14.90;99.90;;;;;;5035650;28;21010;-66
2022/07/24 01:10:54;;;;;;;8.32;5.50;;;14.90;99.90;;;;;;5053118;28;20045;-66
2022/07/24 01:13:21;;;;;;;8.00;5.38;;;14.90;99.90;;;;;;5052836;28;20053;-66
2022/07/24 01:15:47;;;;;;;7.68;5.95;;;14.90;99.90;;;;;;5051631;28;20052;-66
2022/07/24 01:18:13;;;;;;;9.25;5.32;;;14.80;99.90;;;;;;5053086;28;20041;-65
2022/07/24 01:20:39;;;;;;;6.50;5.10;;;14.80;99.90;;;;;;5033757;28;20139;-66
2022/07/24 01:23:05;;;;;;;6.47;4.93;;;14.80;99.90;;;;;;5052099;28;20052;-65
2022/07/24 01:25:32;;;;;;;8.45;5.65;;;14.80;99.90;;;;;;5048581;28;20049;-67
2022/07/24 01:27:58;;;;;;;8.15;5.43;;;14.80;99.90;;;;;;5031943;28;20056;-66
2022/07/24 01:30:24;;;;;;;7.82;5.82;;;14.80;99.90;;;;;;5049854;28;20541;-66
2022/07/24 01:32:50;;;;;;;8.23;5.70;;;14.80;99.90;;;;;;5044697;28;20056;-66
2022/07/24 01:35:16;;;;;;;7.10;5.13;;;14.70;99.90;;;;;;5056302;28;20060;-67
2022/07/24 01:37:42;;;;;;;9.10;5.25;;;14.70;99.90;;;;;;5052066;28;20087;-66
2022/07/24 01:40:09;;;;;;;6.85;5.72;;;14.70;99.90;;;;;;5066517;28;20077;-66
2022/07/24 01:42:34;;;;;;;7.55;5.50;;;14.70;99.90;;;;;;5052200;28;20044;-66
2022/07/24 01:45:00;;;;;;;8.63;5.85;;;14.70;99.90;;;;;;5067025;28;20045;-67
2022/07/24 01:47:26;;;;;;;7.05;5.47;;;14.70;99.90;;;;;;5031645;28;20367;-68
2022/07/24 01:49:52;;;;;;;9.13;5.82;;;14.70;99.90;;;;;;5035232;28;20055;-67
2022/07/24 01:52:18;;;;;;;5.80;5.20;;;14.70;99.90;;;;;;5017764;28;20410;-67
2022/07/24 01:54:44;;;;;;;7.85;5.50;;;14.70;99.90;;;;;;5032422;28;20471;-67
2022/07/24 01:57:10;;;;;;;7.35;5.55;;;14.60;99.90;;;;;;5066590;28;20041;-67
2022/07/24 01:59:36;;;;;;;8.13;5.97;;;14.60;99.90;;;;;;5051479;28;20048;-67
2022/07/24 02:02:02;;;;;;;8.70;6.22;;;14.60;99.90;;;;;;5051181;28;20388;-67
2022/07/24 02:04:28;;;;;;;6.20;5.50;;;14.60;99.90;;;;;;5085113;28;20487;-67
2022/07/24 02:06:54;;;;;;;8.25;5.88;;;14.60;99.90;;;;;;5049174;28;20049;-68
2022/07/24 02:09:20;;;;;;;8.57;6.10;;;14.60;99.90;;;;;;5050744;28;20410;-67
2022/07/24 02:11:46;;;;;;;8.13;5.35;;;14.60;99.90;;;;;;5051279;28;20556;-67
2022/07/24 02:14:11;;;;;;;8.02;5.72;;;14.50;99.90;;;;;;5035220;28;20071;-69
2022/07/24 02:16:37;;;;;;;8.05;5.75;;;14.50;99.90;;;;;;5051604;28;20135;-65
2022/07/24 02:19:03;;;;;;;8.50;5.50;;;14.50;99.90;;;;;;5032553;28;20056;-66
2022/07/24 02:21:30;;;;;;;8.15;5.63;;;14.50;99.90;;;;;;5067149;28;20056;-66
2022/07/24 02:23:55;;;;;;;12.18;6.32;;;14.50;99.90;;;;;;5031053;28;20445;-65
2022/07/24 02:26:21;;;;;;;7.95;6.43;;;14.50;99.90;;;;;;5084442;28;20127;-66
2022/07/24 02:28:48;;;;;;;8.35;6.20;;;14.50;99.90;;;;;;5031691;28;20076;-66
2022/07/24 02:31:14;;;;;;;8.65;6.43;;;14.40;99.90;;;;;;5066757;28;20045;-67
2022/07/24 02:33:40;;;;;;;8.10;6.47;;;14.40;99.90;;;;;;5056005;28;20040;-66
2022/07/24 02:36:06;;;;;;;9.30;6.53;;;14.50;99.90;;;;;;5034063;28;20093;-69
2022/07/24 02:38:32;;;;;;;9.10;6.32;;;14.50;99.90;;;;;;5065459;28;20111;-67
2022/07/24 02:40:58;;;;;;;8.82;6.20;;;14.50;99.90;;;;;;5034956;28;20045;-66
2022/07/24 02:43:23;;;;;;;8.55;6.22;;;14.50;99.90;;;;;;5046422;28;20110;-68
2022/07/24 02:45:49;;;;;;;9.20;6.20;;;14.50;99.90;;;;;;5068187;28;20114;-68
2022/07/24 02:48:16;;;;;;;9.02;6.53;;;14.50;99.90;;;;;;5033963;28;20052;-67
2022/07/24 02:50:41;;;;;;;8.60;6.38;;;14.50;99.90;;;;;;5078973;28;20048;-69
2022/07/24 02:53:07;;;;;;;8.68;6.40;;;14.50;99.90;;;;;;5083190;28;20110;-67
2022/07/24 02:55:33;;;;;;;10.60;6.65;;;14.50;99.90;;;;;;5035333;28;20047;-67
2022/07/24 02:58:00;;;;;;;10.25;7.07;;;14.40;99.90;;;;;;5084154;28;20041;-67
2022/07/24 03:00:26;;;;;;;8.15;6.13;;;14.50;99.90;;;;;;5051010;28;20088;-67
2022/07/24 03:02:51;;;;;;;9.32;5.75;;;14.50;99.90;;;;;;5038307;28;20442;-70
2022/07/24 03:05:18;;;;;;;9.35;6.38;;;14.50;99.90;;;;;;5048836;28;20514;-67
2022/07/24 03:07:44;;;;;;;8.98;6.07;;;14.50;99.90;;;;;;5083458;28;20052;-67
2022/07/24 03:10:11;;;;;;;7.80;6.53;;;14.40;99.90;;;;;;5051049;28;20495;-68
2022/07/24 03:12:38;;;;;;;9.38;6.63;;;14.40;99.90;;;;;;5034286;28;20061;-67
2022/07/24 03:15:04;;;;;;;9.68;6.50;;;14.40;99.90;;;;;;5047045;28;20053;-68
2022/07/24 03:17:30;;;;;;;7.55;6.43;;;14.40;99.90;;;;;;5032522;28;20095;-67
2022/07/24 03:19:56;;;;;;;8.35;6.70;;;14.40;99.90;;;;;;5061375;28;20063;-67
2022/07/24 03:22:22;;;;;;;9.68;6.70;;;14.40;99.90;;;;;;5081984;28;20047;-67
2022/07/24 03:24:48;;;;;;;8.48;6.30;;;14.40;99.90;;;;;;5030846;28;20114;-66
2022/07/24 03:27:14;;;;;;;9.73;6.50;;;14.50;99.90;;;;;;5049529;28;20072;-68
2022/07/24 03:29:40;;;;;;;8.85;6.30;;;14.50;99.90;;;;;;5060445;28;20103;-67
2022/07/24 03:32:07;;;;;;;9.23;6.68;;;14.40;99.90;;;;;;5033701;28;20049;-66
2022/07/24 03:34:33;;;;;;;10.15;6.50;;;14.50;99.90;;;;;;5029654;28;20072;-69
2022/07/24 03:37:00;;;;;;;9.48;6.85;;;14.50;99.90;;;;;;5049563;28;20094;-67
2022/07/24 03:39:26;;;;;;;10.05;6.30;;;14.50;99.90;;;;;;5050029;28;20091;-67
2022/07/24 03:41:52;;;;;;;9.15;6.53;;;14.50;99.90;;;;;;5084592;28;20498;-67
2022/07/24 03:44:18;;;;;;;10.65;6.47;;;14.60;99.90;;;;;;5083995;28;20053;-67
2022/07/24 03:46:44;;;;;;;9.75;6.55;;;14.60;99.90;;;;;;5081097;28;20118;-68
2022/07/24 03:49:10;;;;;;;9.95;6.97;;;14.60;99.90;;;;;;5050039;28;20483;-66
2022/07/24 03:51:37;;;;;;;8.90;6.85;;;14.60;99.90;;;;;;5032812;28;20053;-70
2022/07/24 03:54:03;;;;;;;7.65;6.65;;;14.60;99.90;;;;;;5050247;28;20094;-66
2022/07/24 03:56:29;;;;;;;9.25;6.88;;;14.70;99.90;;;;;;5064962;28;20105;-66
2022/07/24 03:58:56;;;;;;;9.18;6.82;;;14.70;99.90;;;;;;5083565;28;20048;-66
2022/07/24 04:01:22;;;;;;;8.75;6.82;;;14.70;99.90;;;;;;5066855;28;20041;-66
2022/07/24 04:03:49;;;;;;;10.55;6.70;;;14.70;99.90;;;;;;5082501;28;20048;-67
2022/07/24 04:06:16;;;;;;;8.45;6.47;;;14.80;99.90;;;;;;5078128;28;20040;-67
2022/07/24 04:08:42;;;;;;;8.52;6.28;;;14.80;99.90;;;;;;5036092;28;20051;-68
2022/07/24 04:11:08;;;;;;;11.38;6.90;;;14.90;99.90;;;;;;5050236;28;20402;-67
2022/07/24 04:13:34;;;;;;;8.43;6.40;;;14.90;99.90;;;;;;5033369;28;20045;-67
2022/07/24 04:16:01;;;;;;;11.20;7.22;;;14.90;99.90;;;;;;5046315;28;20738;-68
2022/07/24 04:18:27;;;;;;;10.40;6.53;;;15.00;99.90;;;;;;5039707;28;20047;-66
2022/07/24 04:20:53;;;;;;;10.25;6.47;;;15.00;99.90;;;;;;5049046;28;20106;-67
2022/07/24 04:23:19;;;;;;;8.32;6.80;;;15.10;99.90;;;;;;5049516;28;20107;-67
2022/07/24 04:25:45;;;;;;;9.75;6.70;;;15.10;99.90;;;;;;5076925;28;20043;-67
2022/07/24 04:28:11;;;;;;;8.23;6.60;;;15.10;99.90;;;;;;5031971;28;20045;-70
2022/07/24 04:30:37;;;;;;;7.63;6.45;;;15.20;99.90;;;;;;5049953;28;20083;-66
2022/07/24 04:33:03;;;;;;;9.02;6.38;;;15.20;99.90;;;;;;5033097;28;20554;-66
2022/07/24 04:35:29;;;;;;;9.82;6.50;;;15.20;99.90;;;;;;5048971;28;20228;-66
2022/07/24 04:37:55;;;;;;;9.18;6.78;;;15.20;99.90;;;;;;5049940;28;20503;-67
2022/07/24 04:40:21;;;;;;;9.63;6.78;;;15.20;99.90;;;;;;5066659;28;20115;-66
2022/07/24 04:42:47;;;;;;;10.50;6.63;;;15.20;99.90;;;;;;5062865;28;20049;-70
2022/07/24 04:45:13;;;;;;;8.93;6.65;;;15.30;99.90;;;;;;5049436;28;20053;-67
2022/07/24 04:47:39;;;;;;;10.95;6.53;;;15.30;99.90;;;;;;5038654;28;20045;-67
2022/07/24 04:50:06;;;;;;;9.65;6.50;;;15.30;99.90;;;;;;5032415;28;20041;-68
2022/07/24 04:52:32;;;;;;;9.88;6.85;;;15.30;99.90;;;;;;5047038;28;20403;-68
2022/07/24 04:54:58;;;;;;;9.23;6.43;;;15.40;99.90;;;;;;5049480;28;20048;-67
2022/07/24 04:57:24;;;;;;;11.52;6.65;;;15.50;99.90;;;;;;5049811;28;20484;-67
2022/07/24 04:59:50;;;;;;;8.88;6.68;;;15.60;99.90;;;;;;5083418;28;20053;-66
2022/07/24 05:02:16;;;;;;;8.65;6.45;;;15.60;99.90;;;;;;5047977;28;20041;-67
2022/07/24 05:04:42;;;;;;;10.70;6.68;;;15.70;99.90;;;;;;5033234;28;20057;-67
2022/07/24 05:07:08;;;;;;;8.65;6.63;;;15.80;99.90;;;;;;5031490;28;20072;-67
2022/07/24 05:09:34;;;;;;;10.77;6.65;;;15.90;99.90;;;;;;5052348;28;20045;-68
2022/07/24 05:12:00;;;;;;;8.95;6.70;;;16.00;99.90;;;;;;5069575;28;20402;-67
2022/07/24 05:14:26;;;;;;;9.25;6.25;;;16.10;99.90;;;;;;5036785;28;20045;-67
2022/07/24 05:16:51;;;;;;;9.02;6.65;;;16.10;99.90;;;;;;5086489;28;20137;-67
2022/07/24 05:19:17;;;;;;;8.80;6.82;;;16.20;99.90;;;;;;5080637;28;20056;-67
2022/07/24 05:21:43;;;;;;;9.13;6.63;;;16.20;99.90;;;;;;5058904;28;20045;-71
2022/07/24 05:24:09;;;;;;;8.43;6.43;;;16.20;99.90;;;;;;5078515;28;20437;-71
2022/07/24 05:26:35;;;;;;;9.50;6.60;;;16.30;99.90;;;;;;5052328;28;21202;-67
2022/07/24 05:29:05;;;;;;;8.02;6.60;;;16.30;99.90;;;;;;5036607;28;20547;-67
2022/07/24 05:31:32;;;;;;;9.20;6.72;;;16.40;99.90;;;;;;5053698;28;20044;-67
2022/07/24 05:33:58;;;;;;;10.25;6.55;;;16.50;99.90;;;;;;5028678;28;20056;-67
2022/07/24 05:36:25;;;;;;;9.85;6.63;;;16.60;99.90;;;;;;5035995;28;20053;-67
2022/07/24 05:38:50;;;;;;;7.68;6.55;;;16.60;99.90;;;;;;5041409;28;20045;-66
2022/07/24 05:41:16;;;;;;;7.93;6.43;;;16.70;99.90;;;;;;5052927;28;20095;-67
2022/07/24 05:43:42;;;;;;;8.55;6.75;;;16.80;99.90;;;;;;5035761;28;20045;-68
2022/07/24 05:46:08;;;;;;;11.32;6.60;;;16.80;99.90;;;;;;5052955;28;20048;-68
2022/07/24 05:48:34;;;;;;;10.02;7.07;;;16.80;99.90;;;;;;5044624;28;20045;-66
2022/07/24 05:51:00;;;;;;;10.07;7.10;;;16.80;99.90;;;;;;5052247;28;20041;-67
2022/07/24 05:53:26;;;;;;;8.63;6.80;;;16.80;99.90;;;;;;5069161;28;20072;-66
2022/07/24 05:55:52;;;;;;;7.95;6.70;;;16.80;99.90;;;;;;5083296;28;20084;-66
2022/07/24 05:58:18;;;;;;;9.07;7.45;;;16.90;99.90;;;;;;5086049;28;20052;-67
2022/07/24 06:00:45;;;;;;;8.85;7.40;;;17.10;99.90;;;;;;5034929;28;20503;-67
2022/07/24 06:03:11;;;;;;;10.70;7.20;;;17.30;99.90;;;;;;5051112;28;20082;-68
2022/07/24 06:05:37;;;;;;;8.93;7.15;;;17.50;99.90;;;;;;5050197;28;20080;-66
2022/07/24 06:08:04;;;;;;;12.20;6.82;;;17.70;99.90;;;;;;5051106;28;20082;-67
2022/07/24 06:10:31;;;;;;;8.77;7.75;;;18.00;99.90;;;;;;5035526;28;20094;-66
2022/07/24 06:12:58;;;;;;;9.55;7.18;;;18.30;99.90;;;;;;5051961;28;20049;-67
2022/07/24 06:15:24;;;;;;;9.05;8.15;;;18.50;99.90;;;;;;5033160;28;20360;-67
2022/07/24 06:17:50;;;;;;;8.35;7.43;;;18.60;99.90;;;;;;5049479;28;20056;-68
2022/07/24 06:20:16;;;;;;;11.48;8.00;;;18.60;99.90;;;;;;5075360;28;20068;-68
2022/07/24 06:22:44;;;;;;;9.65;7.45;;;18.60;99.90;;;;;;5080636;28;20049;-67
2022/07/24 06:25:11;;;;;;;11.02;8.25;;;18.60;99.90;;;;;;5035509;28;20041;-68
2022/07/24 06:27:47;;;;;;;10.02;7.78;;;18.60;99.90;;;;;;5052026;28;20123;-68
2022/07/24 06:30:21;;;;;;;9.55;7.63;;;18.60;99.90;;;;;;5051663;28;20099;-67
2022/07/24 06:32:48;;;;;;;9.15;8.02;;;18.60;99.90;;;;;;5083499;28;20056;-67
2022/07/24 06:35:15;;;;;;;9.65;8.65;;;18.70;99.90;;;;;;5064573;28;20411;-68
2022/07/24 06:37:41;;;;;;;10.05;8.65;;;18.70;99.90;;;;;;5051778;28;20049;-71
2022/07/24 06:40:08;;;;;;;9.95;8.65;;;18.90;99.90;;;;;;5068121;28;20110;-67
2022/07/24 06:42:34;;;;;;;10.20;8.85;;;19.20;99.90;;;;;;5050220;28;20396;-67
2022/07/24 06:45:00;;;;;;;12.65;9.05;;;19.40;99.90;;;;;;5035406;28;20080;-67
2022/07/24 06:47:26;;;;;;;10.52;8.82;;;19.60;99.90;;;;;;5050578;28;20049;-69
2022/07/24 06:49:53;;;;;;;11.43;9.75;;;19.80;99.90;;;;;;5033240;28;20049;-67
2022/07/24 06:52:20;;;;;;;10.70;9.60;;;19.80;99.90;;;;;;5044483;28;20049;-66
2022/07/24 06:54:46;;;;;;;12.20;9.65;;;19.90;99.90;;;;;;5034970;28;20056;-67
2022/07/24 06:57:13;;;;;;;14.70;10.02;;;20.00;99.90;;;;;;5050569;28;20041;-68
2022/07/24 06:59:40;;;;;;;12.77;10.13;;;20.20;99.90;;;;;;5032084;28;20041;-67
2022/07/24 07:02:06;;;;;;;12.68;10.93;;;20.40;99.90;;;;;;5053558;28;20048;-71
2022/07/24 07:04:32;;;;;;;11.73;10.52;;;20.50;99.90;;;;;;5032150;28;20494;-70
2022/07/24 07:06:59;;;;;;;14.07;11.13;;;20.50;99.90;;;;;;5049413;28;20080;-70
2022/07/24 07:09:25;;;;;;;12.00;9.10;;;20.50;99.90;;;;;;5038938;28;20490;-69
2022/07/24 07:11:51;;;;;;;16.15;10.68;;;20.50;99.90;;;;;;5039976;28;20061;-69
2022/07/24 07:14:17;;;;;;;12.52;10.30;;;20.50;99.90;;;;;;5033236;28;20041;-71
2022/07/24 07:16:43;;;;;;;16.42;11.60;;;20.60;99.90;;;;;;5033198;28;20106;-70
2022/07/24 07:19:10;;;;;;;13.35;10.40;;;20.60;99.90;;;;;;5048956;28;20052;-70
2022/07/24 07:21:37;;;;;;;14.43;11.10;;;20.80;99.90;;;;;;5032589;28;20040;-70
2022/07/24 07:24:04;;;;;;;14.75;11.45;;;21.00;99.90;;;;;;5035105;28;20049;-71
2022/07/24 07:26:30;;;;;;;14.55;11.10;;;21.00;99.90;;;;;;5067480;28;20048;-69
2022/07/24 07:28:56;;;;;;;13.18;11.40;;;21.10;99.90;;;;;;5051103;28;20045;-68
2022/07/24 07:31:24;;;;;;;14.98;11.77;;;21.20;99.90;;;;;;5033677;28;20453;-70
2022/07/24 07:33:51;;;;;;;13.50;11.93;;;21.20;99.90;;;;;;5016664;28;20387;-69
2022/07/24 07:36:17;;;;;;;13.45;11.25;;;21.10;99.90;;;;;;5032245;28;20095;-69
2022/07/24 07:38:44;;;;;;;18.00;13.18;;;21.10;99.90;;;;;;5037261;28;20062;-68
2022/07/24 07:41:10;;;;;;;16.80;12.00;;;21.30;99.90;;;;;;5022189;28;20090;-69
2022/07/24 07:43:36;;;;;;;16.80;12.45;;;21.30;99.90;;;;;;5031160;28;20063;-71
2022/07/24 07:46:02;;;;;;;13.82;12.10;;;21.40;99.90;;;;;;5049251;28;20502;-69
2022/07/24 07:48:30;;;;;;;18.45;12.80;;;21.60;99.90;;;;;;5048161;28;20053;-70
2022/07/24 07:50:57;;;;;;;17.17;12.95;;;21.80;99.90;;;;;;5033425;28;20045;-69
2022/07/24 07:53:23;;;;;;;16.70;12.85;;;21.80;99.90;;;;;;5033568;28;20411;-69
2022/07/24 07:55:51;;;;;;;16.42;13.00;;;22.00;99.90;;;;;;5048075;28;20482;-69
2022/07/24 07:58:22;;;;;;;16.45;12.63;;;22.10;99.90;;;;;;5083994;28;20048;-68
2022/07/24 08:00:48;;;;;;;19.88;13.88;;;22.30;99.90;;;;;;5049998;28;20110;-69
2022/07/24 08:03:14;;;;;;;16.73;13.70;;;22.50;99.90;;;;;;5065141;28;20516;-68
2022/07/24 08:05:40;;;;;;;15.73;12.38;;;22.60;99.90;;;;;;5049245;28;20043;-69
2022/07/24 08:08:06;;;;;;;16.60;13.32;;;22.80;99.90;;;;;;5032918;28;20049;-69
2022/07/24 08:10:32;;;;;;;16.50;12.73;;;23.00;99.90;;;;;;5050291;28;20525;-70
2022/07/24 08:12:58;;;;;;;16.83;12.93;;;23.20;99.90;;;;;;5044304;28;20053;-69
2022/07/24 08:15:24;;;;;;;16.98;12.75;;;23.40;99.90;;;;;;5049764;28;20037;-69
2022/07/24 08:17:55;;;;;;;18.30;14.00;;;23.70;99.90;;;;;;5048954;28;20540;-69
2022/07/24 08:20:23;;;;;;;18.75;14.13;;;23.50;99.90;;;;;;5061164;28;20053;-71
2022/07/24 08:22:49;;;;;;;19.40;13.77;;;23.40;99.90;;;;;;5083095;28;20128;-69
2022/07/24 08:25:16;;;;;;;17.77;14.32;;;23.20;99.90;;;;;;5049887;28;20053;-70
2022/07/24 08:27:42;;;;;;;17.60;12.85;;;23.10;99.90;;;;;;5015751;28;20052;-72
2022/07/24 08:30:09;;;;;;;20.38;12.93;;;23.00;99.90;;;;;;5049487;28;20423;-69
2022/07/24 08:32:35;;;;;;;16.13;12.95;;;23.20;99.90;;;;;;5047878;28;20048;-70
2022/07/24 08:35:01;;;;;;;19.50;13.35;;;23.50;99.90;;;;;;5048839;28;20477;-72
2022/07/24 08:37:27;;;;;;;16.85;11.55;;;23.60;99.90;;;;;;5064138;28;20111;-69
2022/07/24 08:39:54;;;;;;;12.85;10.43;;;23.70;99.90;;;;;;5031632;28;20684;-71
2022/07/24 08:42:21;;;;;;;13.35;9.05;;;23.80;99.90;;;;;;5020414;28;20049;-68
2022/07/24 08:44:47;;;;;;;13.18;9.15;;;23.80;99.90;;;;;;5068691;28;20122;-69
2022/07/24 08:47:14;;;;;;;9.95;7.40;;;23.80;99.90;;;;;;5053173;28;20053;-69
2022/07/24 08:49:44;;;;;;;7.63;6.10;;;23.90;99.90;;;;;;5036889;28;20059;-70
2022/07/24 08:52:10;;;;;;;7.22;6.28;;;23.90;99.90;;;;;;5020883;28;20080;-69
2022/07/24 08:54:36;;;;;;;10.70;6.97;;;24.10;99.90;;;;;;5036673;28;20119;-69
2022/07/24 08:57:03;;;;;;;6.30;5.60;;;24.40;99.90;;;;;;5084154;28;20052;-68
2022/07/24 08:59:29;;;;;;;6.85;5.40;;;24.50;99.90;;;;;;5024181;28;20049;-67
2022/07/24 09:01:56;;;;;;;8.02;5.32;;;24.70;99.90;;;;;;5035439;28;20055;-69
2022/07/24 09:04:34;;;;;;;8.32;5.80;;;24.70;99.90;;;;;;5036690;28;20049;-68
2022/07/24 09:07:01;;;;;;;7.43;5.53;;;24.70;99.90;;;;;;5037056;28;20079;-68
2022/07/24 09:09:27;;;;;;;8.75;5.82;;;24.80;99.90;;;;;;5036207;28;20048;-69
2022/07/24 09:12:22;;;;;;;7.97;5.68;;;24.60;99.90;;;;;;5068569;28;20041;-68
2022/07/24 09:14:48;;;;;;;7.57;5.90;;;24.50;99.90;;;;;;5039099;28;20536;-68
2022/07/24 09:17:17;;;;;;;10.27;6.05;;;24.40;99.90;;;;;;5047310;28;20048;-68
2022/07/24 09:19:58;;;;;;;6.93;5.20;;;24.40;99.90;;;;;;5049762;28;20056;-68
2022/07/24 09:22:41;;;;;;;6.47;5.00;;;24.30;99.90;;;;;;5047479;28;20574;-68
2022/07/24 09:25:23;;;;;;;5.60;4.72;;;24.50;99.90;;;;;;5032005;28;20498;-68
2022/07/24 09:27:50;;;;;;;4.75;3.70;;;24.80;99.90;;;;;;5050807;28;20136;-68
2022/07/24 09:30:24;;;;;;;5.03;3.97;;;24.70;99.90;;;;;;5035457;28;20041;-68
2022/07/24 09:33:05;;;;;;;6.10;4.00;;;24.80;99.90;;;;;;5048919;28;20041;-68
2022/07/24 09:35:31;;;;;;;5.28;3.83;;;24.90;99.90;;;;;;5046507;28;20045;-69
2022/07/24 09:37:58;;;;;;;5.90;3.72;;;25.00;99.90;;;;;;5051459;28;20057;-67
2022/07/24 09:40:30;;;;;;;4.63;3.60;;;25.00;99.90;;;;;;5053035;28;20392;-69
2022/07/24 09:43:12;;;;;;;6.68;3.95;;;25.10;99.90;;;;;;5035951;28;20053;-68
2022/07/24 09:46:08;;;;;;;6.07;4.10;;;25.20;99.70;;;;;;5084472;28;20534;-68
2022/07/24 09:48:35;;;;;;;5.55;4.03;;;25.30;99.60;;;;;;5081440;28;20049;-68
2022/07/24 09:51:16;;;;;;;6.50;4.20;;;25.30;99.60;;;;;;5035428;28;20057;-72
2022/07/24 09:53:44;;;;;;;4.50;4.10;;;25.30;99.60;;;;;;5052798;28;20095;-70
2022/07/24 09:56:13;;;;;;;4.35;3.42;;;25.00;99.70;;;;;;5068785;28;20045;-68
2022/07/24 09:58:45;;;;;;;4.65;3.72;;;24.90;99.70;;;;;;5051065;28;20051;-68
2022/07/24 10:01:13;;;;;;;6.53;4.20;;;25.10;99.20;;;;;;5051943;28;20056;-70
2022/07/24 10:03:41;;;;;;;3.72;3.38;;;25.40;99.40;;;;;;5052691;28;20044;-68
2022/07/24 10:06:10;;;;;;;4.32;3.80;;;25.60;98.70;;;;;;5035805;28;20049;-68
2022/07/24 10:08:38;;;;;;;4.35;3.95;;;25.60;98.60;;;;;;5042992;28;20041;-67
2022/07/24 10:11:04;;;;;;;5.22;3.90;;;25.60;97.30;;;;;;5064969;28;20137;-68
2022/07/24 10:13:31;;;;;;;5.95;3.85;;;25.60;97.30;;;;;;5060323;28;20079;-69
2022/07/24 10:16:12;;;;;;;4.47;3.58;;;25.50;96.40;;;;;;5051809;28;20410;-69
2022/07/24 10:18:44;;;;;;;4.57;3.70;;;25.60;95.60;;;;;;5083453;28;20076;-68
2022/07/24 10:21:18;;;;;;;4.38;3.30;;;25.60;96.40;;;;;;5051546;28;20049;-69
2022/07/24 10:24:03;;;;;;;7.22;3.50;;;25.60;94.40;;;;;;5032020;28;20406;-70
2022/07/24 10:26:50;;;;;;;4.60;3.47;;;25.70;92.30;;;;;;5051554;28;20045;-68
2022/07/24 10:29:23;;;;;;;4.43;3.80;;;25.90;92.40;;;;;;5051515;28;20072;-68
2022/07/24 10:31:55;;;;;;;4.07;3.60;;;26.00;93.70;;;;;;5034697;28;20135;-69
2022/07/24 10:34:24;;;;;;;5.95;3.20;;;26.20;91.70;;;;;;5047501;28;20581;-68
2022/07/24 10:37:22;;;;;;;3.67;3.38;;;26.30;93.30;;;;;;5033838;28;20060;-69
2022/07/24 10:40:10;;;;;;;5.05;3.30;;;26.40;91.50;;;;;;5027012;28;20064;-68
2022/07/24 10:43:08;;;;;;;4.53;3.50;;;26.30;91.00;;;;;;5046525;28;20070;-68
2022/07/24 10:45:36;;;;;;;4.55;3.33;;;26.50;92.50;;;;;;5034787;28;20053;-68
2022/07/24 10:48:21;;;;;;;5.90;3.38;;;27.10;91.10;;;;;;5034296;28;20491;-68
2022/07/24 10:51:07;;;;;;;5.80;3.20;;;27.40;86.70;;;;;;5034827;28;20135;-68
2022/07/24 10:53:47;;;;;;;6.10;3.25;;;27.50;88.90;;;;;;5050351;28;20053;-69
2022/07/24 10:56:38;;;;;;;4.32;3.10;;;27.30;87.80;;;;;;5066927;28;20110;-68
2022/07/24 10:59:04;;;;;;;3.92;3.13;;;27.00;86.70;;;;;;5051513;28;20397;-69
2022/07/24 11:01:53;;;;;;;3.45;3.03;;;27.00;87.80;;;;;;5047954;28;20494;-70
2022/07/24 11:04:20;;;;;;;3.47;3.17;;;26.80;84.30;;;;;;5050965;28;20060;-69
2022/07/24 11:07:21;;;;;;;4.22;3.22;;;26.70;86.90;;;;;;5035161;28;20080;-70
2022/07/24 11:09:58;;;;;;;4.38;3.47;;;26.70;87.00;;;;;;5007930;28;20061;-72
2022/07/24 11:12:30;;;;;;;3.60;3.30;;;26.90;84.30;;;;;;5032252;28;20049;-68
2022/07/24 11:15:54;;;;;;;4.65;3.42;;;27.20;88.10;;;;;;5050413;28;20628;-69
2022/07/24 11:17:49;;;;;;;5.20;3.45;;;27.20;85.20;;;;;;5039635;28;20053;-69
2022/07/24 11:20:18;;;;;;;4.00;2.92;;;27.20;86.60;;;;;;5050847;28;20037;-68
2022/07/24 11:22:50;;;;;;;4.78;3.13;;;27.20;85.50;;;;;;5033398;28;20041;-70
2022/07/24 11:25:21;;;;;;;4.07;3.28;;;27.10;85.60;;;;;;5034195;28;20048;-69
2022/07/24 11:27:56;;;;;;;4.32;3.35;;;27.00;84.10;;;;;;5050020;28;20119;-69
2022/07/24 11:30:23;;;;;;;4.18;3.75;;;26.90;82.40;;;;;;5050806;28;20045;-68
2022/07/24 11:32:49;;;;;;;5.85;3.83;;;27.00;85.60;;;;;;5049822;28;20040;-69
2022/07/24 11:35:16;;;;;;;5.18;3.35;;;27.10;85.80;;;;;;5050165;28;20049;-69
2022/07/24 11:37:43;;;;;;;3.85;3.45;;;27.10;86.50;;;;;;5050520;28;20041;-69
2022/07/24 11:40:14;;;;;;;4.15;3.45;;;27.60;85.90;;;;;;5034139;28;20060;-68
2022/07/24 11:42:40;;;;;;;;;;;27.90;79.80;;;;;;5050007;28;20040;-70
2022/07/24 11:45:07;;;;;;;8.02;3.25;;;28.10;81.00;;;;;;5050889;28;19932;-69
2022/07/24 11:47:33;;;;;;;4.40;3.35;;;28.00;78.20;;;;;;5046206;28;20632;-68
2022/07/24 11:50:02;;;;;;;3.58;3.17;;;28.30;80.10;;;;;;5051349;28;20049;-70
2022/07/24 11:52:37;;;;;;;3.55;3.25;;;28.30;79.20;;;;;;5063789;28;20052;-70
2022/07/24 11:55:03;;;;;;;3.50;3.20;;;28.30;76.20;;;;;;5066993;28;20044;-70
2022/07/24 11:57:32;;;;;;;4.03;3.63;;;28.40;75.70;;;;;;5047112;28;20041;-69
2022/07/24 11:59:59;;;;;;;3.50;3.20;;;28.20;75.40;;;;;;5050714;28;20049;-71
2022/07/24 12:02:26;;;;;;;4.68;3.30;;;28.20;76.40;;;;;;5049981;28;20100;-71
2022/07/24 12:04:52;;;;;;;4.80;3.20;;;28.20;76.00;;;;;;5049806;28;20052;-70
2022/07/24 12:07:22;;;;;;;5.18;3.15;;;28.20;76.80;;;;;;5029012;28;20059;-71
2022/07/24 12:09:57;;;;;;;3.97;3.00;;;28.10;74.60;;;;;;5074059;28;20045;-70
2022/07/24 12:12:29;;;;;;;5.28;3.20;;;28.10;75.10;;;;;;5032637;28;20128;-69
2022/07/24 12:15:06;;;;;;;6.50;3.38;;;28.20;75.70;;;;;;5032427;28;20075;-71
2022/07/24 12:17:35;;;;;;;7.22;3.58;;;28.50;73.90;;;;;;5052512;28;20048;-70
2022/07/24 12:20:05;;;;;;;6.28;3.42;;;28.40;74.80;;;;;;5059373;28;20045;-70
2022/07/24 12:22:31;;;;;;;10.95;3.80;;;28.60;75.30;;;;;;5040539;28;20052;-73
2022/07/24 12:24:58;;;;;;;8.35;3.33;;;28.30;72.60;;;;;;5053344;28;20045;-70
2022/07/24 12:27:37;;;;;;;4.97;3.35;;;28.50;74.00;;;;;;5087630;28;20049;-71
2022/07/24 12:30:30;;;;;;;5.13;3.30;;;28.50;74.20;;;;;;5054104;28;20041;-72
2022/07/24 12:32:59;;;;;;;3.40;3.10;;;28.50;71.80;;;;;;5051565;28;20072;-71
2022/07/24 12:35:27;;;;;;;6.45;3.20;;;28.50;71.60;;;;;;5063008;28;20136;-70
2022/07/24 12:37:54;;;;;;;5.60;3.20;;;28.50;72.40;;;;;;5037398;28;20045;-71
2022/07/24 12:40:28;;;;;;;4.95;3.03;;;28.40;72.10;;;;;;5053201;28;20044;-71
2022/07/24 12:42:59;;;;;;;3.33;3.00;;;28.70;72.90;;;;;;5085099;28;20049;-69
2022/07/24 12:45:25;;;;;;;4.88;3.42;;;29.00;72.80;;;;;;5054047;28;20083;-69
2022/07/24 12:48:11;;;;;;;3.70;3.10;;;29.20;72.40;;;;;;5037292;28;20052;-69
2022/07/24 12:50:38;;;;;;;3.95;3.33;;;29.50;68.90;;;;;;5087633;28;20094;-69